Main page
Satellite images 15-day forecastsClimateMarine weather Cyclones Lightning AirportsFAQ Newsletter About
Weather : Europe Africa North America South America Asia Australia-Oceania Others
Languages Contact

Eleusina, Greece

latitude: 38-04N, longitude: 023-33E, elevation: 44 m


METAR: LGEL 192220Z 35005KT 9999 FEW025 08/05 Q1022
TAF: LGEL 191700Z 1918/2018 34010KT 9999 FEW025

Time: 00:53 (22:53 UTC)

Current weather observation

The report was made 33 minutes ago, at 22:20 UTC
Wind 5 kt from the North
Temperature 8°C
Humidity 81%
Pressure 1022 hPa
Visibility 10 km or more
Few clouds at a height of 2500 ft

Change units

Forecast

The report was made 5 hours and 53 minutes ago, at 17:00 UTC
Forecast valid from 19 at 18 UTC to 20 at 18 UTC
Wind 10 kt from the North/Northwest
Visibility 10 km or more
Few clouds at a height of 2500 ft
The information on this site is subject to a disclaimer
Weather : Europe Africa North America South America Asia Australia-Oceania Others
Satellite images 15-day forecastsClimateMarine weather Cyclones Lightning AirportsFAQ Languages Contact Newsletter About